createdAt,value
2019-04-20T00:00:49.179Z,102595.87
2019-04-20T00:03:18.280Z,102592.29
2019-04-20T00:05:48.933Z,102590.59
2019-04-20T00:08:24.278Z,102595.98
2019-04-20T00:10:58.015Z,102595.53
2019-04-20T00:13:30.841Z,102596.89
2019-04-20T00:15:53.616Z,102596.84
2019-04-20T00:18:25.923Z,102596.05
2019-04-20T00:21:08.153Z,102593.77
2019-04-20T00:23:45.359Z,102592.32
2019-04-20T00:26:56.376Z,102595.40
2019-04-20T00:29:17.656Z,102592.87
2019-04-20T00:31:44.594Z,102589.66
2019-04-20T00:34:08.973Z,102586.66
2019-04-20T00:36:33.075Z,102584.88
2019-04-20T00:39:06.347Z,102587.20
2019-04-20T00:41:44.052Z,102587.84
2019-04-20T00:44:12.221Z,102579.27
2019-04-20T00:46:53.512Z,102578.81
2019-04-20T00:49:20.663Z,102584.63
2019-04-20T00:52:00.479Z,102590.36
2019-04-20T00:54:11.524Z,102586.84
2019-04-20T00:56:41.377Z,102586.84
2019-04-20T00:59:25.935Z,102589.06
2019-04-20T01:02:02.276Z,102584.46
2019-04-20T01:04:29.987Z,102586.52
2019-04-20T01:07:22.609Z,102579.77
2019-04-20T01:10:09.165Z,102573.97
2019-04-20T01:12:42.065Z,102578.22
2019-04-20T01:15:16.886Z,102578.45
2019-04-20T01:17:43.051Z,102574.01
2019-04-20T01:20:13.311Z,102574.36
2019-04-20T01:22:51.359Z,102576.78
2019-04-20T01:25:24.823Z,102577.02
2019-04-20T01:28:17.724Z,102578.13
2019-04-20T01:30:28.356Z,102581.87
2019-04-20T01:33:06.234Z,102573.64
2019-04-20T01:35:39.406Z,102574.24
2019-04-20T01:38:12.671Z,102570.38
2019-04-20T01:40:25.655Z,102574.00
2019-04-20T01:42:55.388Z,102573.78
2019-04-20T01:45:29.390Z,102576.07
2019-04-20T01:47:59.462Z,102574.86
2019-04-20T01:50:31.224Z,102575.09
2019-04-20T01:53:11.488Z,102572.19
2019-04-20T01:56:01.466Z,102578.73
2019-04-20T01:58:35.158Z,102576.19
2019-04-20T02:01:12.892Z,102579.20
2019-04-20T02:03:50.269Z,102581.60
2019-04-20T02:06:21.658Z,102566.50
2019-04-20T02:08:52.833Z,102576.28
2019-04-20T02:11:25.970Z,102569.50
2019-04-20T02:13:57.122Z,102572.05
2019-04-20T02:16:33.643Z,102572.05
2019-04-20T02:19:10.688Z,102565.27
2019-04-20T02:21:45.301Z,102569.37
2019-04-20T02:24:01.277Z,102567.79
2019-04-20T02:26:30.128Z,102569.68
2019-04-20T02:29:27.650Z,102568.61
2019-04-20T02:37:41.797Z,102566.64
2019-04-20T02:40:05.544Z,102567.48
2019-04-20T02:42:42.246Z,102575.68
2019-04-20T02:45:12.666Z,102574.69
2019-04-20T02:50:06.940Z,102570.45
2019-04-20T02:52:52.471Z,102570.41
2019-04-20T02:55:17.982Z,102575.61
2019-04-20T02:57:50.955Z,102563.96
2019-04-20T03:02:29.971Z,102559.09
2019-04-20T03:04:56.178Z,102563.77
2019-04-20T03:07:30.456Z,102567.62
2019-04-20T03:10:05.549Z,102574.92
2019-04-20T03:12:43.083Z,102569.70
2019-04-20T03:15:09.592Z,102567.25
2019-04-20T03:17:49.317Z,102564.66
2019-04-20T03:20:20.005Z,102558.23
2019-04-20T03:23:15.848Z,102561.20
2019-04-20T03:25:39.702Z,102560.70
2019-04-20T03:28:11.788Z,102561.02
2019-04-20T03:33:51.598Z,102560.92
2019-04-20T03:36:12.103Z,102559.22
2019-04-20T03:38:36.087Z,102557.52
2019-04-20T03:41:06.409Z,102557.05
2019-04-20T03:43:20.447Z,102564.15
2019-04-20T03:45:57.988Z,102570.30
2019-04-20T03:48:37.087Z,102568.92
2019-04-20T03:51:17.031Z,102564.09
2019-04-20T03:53:55.479Z,102568.08
2019-04-20T03:56:42.282Z,102561.23
2019-04-20T03:59:19.501Z,102574.28
2019-04-20T04:02:22.882Z,102566.22
2019-04-20T04:04:56.348Z,102569.14
2019-04-20T04:07:15.552Z,102566.59
2019-04-20T04:09:56.414Z,102566.70
2019-04-20T04:12:46.746Z,102568.98
2019-04-20T04:15:16.819Z,102563.30
2019-04-20T04:17:48.187Z,102564.36
2019-04-20T04:20:20.735Z,102563.73
2019-04-20T04:23:11.509Z,102560.70
2019-04-20T04:25:29.746Z,102571.57
2019-04-20T04:28:12.934Z,102564.36
2019-04-20T04:30:42.805Z,102569.34
2019-04-20T04:33:40.227Z,102562.03
2019-04-20T04:35:44.293Z,102570.05
2019-04-20T04:38:19.431Z,102578.08
2019-04-20T04:41:06.485Z,102580.53
2019-04-20T04:43:27.050Z,102578.31
2019-04-20T04:45:36.981Z,102571.07
2019-04-20T04:48:13.106Z,102557.80
2019-04-20T04:50:49.616Z,102570.78
2019-04-20T04:53:20.604Z,102570.78
2019-04-20T04:55:47.704Z,102555.95
2019-04-20T04:58:11.111Z,102555.95
2019-04-20T05:00:42.952Z,102552.23
2019-04-20T05:03:35.382Z,102564.63
2019-04-20T05:06:26.483Z,102573.23
2019-04-20T05:08:48.655Z,102563.59
2019-04-20T05:11:13.288Z,102564.56
2019-04-20T05:14:03.213Z,102567.23
2019-04-20T05:16:46.439Z,102568.10
2019-04-20T05:19:19.669Z,102566.28
2019-04-20T05:22:11.101Z,102563.50
2019-04-20T05:24:53.536Z,102565.66
2019-04-20T05:27:46.626Z,102570.13
2019-04-20T05:29:59.205Z,102568.25
2019-04-20T05:32:41.321Z,102565.34
2019-04-20T05:35:24.088Z,102565.39
2019-04-20T05:40:44.370Z,102559.28
2019-04-20T05:42:59.479Z,102558.98
2019-04-20T05:45:32.357Z,102555.16
2019-04-20T05:48:02.416Z,102563.91
2019-04-20T05:50:37.974Z,102553.72
2019-04-20T05:53:16.111Z,102559.05
2019-04-20T05:55:41.640Z,102555.14
2019-04-20T05:58:17.636Z,102557.94
2019-04-20T06:00:48.389Z,102554.34
2019-04-20T06:03:18.492Z,102554.95
2019-04-20T06:06:00.869Z,102553.41
2019-04-20T06:08:32.985Z,102557.14
2019-04-20T06:10:52.281Z,102551.94
2019-04-20T06:13:27.726Z,102553.01
2019-04-20T06:16:13.892Z,102549.72
2019-04-20T06:18:56.144Z,102540.72
2019-04-20T06:21:52.900Z,102541.50
2019-04-20T06:24:03.797Z,102539.25
2019-04-20T06:29:19.380Z,102538.66
2019-04-20T06:31:53.490Z,102540.03
2019-04-20T06:37:18.765Z,102544.41
2019-04-20T06:39:44.831Z,102541.49
2019-04-20T06:44:41.424Z,102534.89
2019-04-20T06:47:19.915Z,102539.02
2019-04-20T06:49:45.345Z,102536.47
2019-04-20T06:52:29.772Z,102533.57
2019-04-20T06:55:09.948Z,102530.37
2019-04-20T07:00:27.030Z,102531.08
2019-04-20T07:05:21.106Z,102521.67
2019-04-20T07:12:46.649Z,102527.13
2019-04-20T07:15:19.946Z,102518.48
2019-04-20T07:18:08.203Z,102521.86
2019-04-20T07:20:55.455Z,102517.56
2019-04-20T07:23:26.525Z,102518.47
2019-04-20T07:25:47.847Z,102516.86
2019-04-20T07:28:26.504Z,102516.95
2019-04-20T07:30:50.329Z,102519.47
2019-04-20T07:33:24.389Z,102513.09
2019-04-20T07:35:52.388Z,102516.25
2019-04-20T07:40:56.088Z,102515.47
2019-04-20T07:43:30.092Z,102519.09
2019-04-20T07:46:00.095Z,102515.84
2019-04-20T07:48:30.745Z,102510.74
2019-04-20T07:50:55.388Z,102508.86
2019-04-20T07:53:30.656Z,102508.48
2019-04-20T07:56:06.066Z,102506.88
2019-04-20T07:58:28.304Z,102505.60
2019-04-20T08:01:40.198Z,102506.00
2019-04-20T08:04:09.314Z,102503.22
2019-04-20T08:06:37.936Z,102496.14
2019-04-20T08:09:16.075Z,102493.66
2019-04-20T08:11:56.558Z,102498.13
2019-04-20T08:14:25.707Z,102493.33
2019-04-20T08:17:12.280Z,102493.60
2019-04-20T08:19:31.572Z,102492.67
2019-04-20T08:21:57.099Z,102484.00
2019-04-20T08:24:31.725Z,102487.50
2019-04-20T08:26:50.753Z,102481.72
2019-04-20T08:29:52.960Z,102479.14
2019-04-20T08:32:38.859Z,102479.71
2019-04-20T08:35:13.911Z,102478.76
2019-04-20T08:37:52.148Z,102474.06
2019-04-20T08:40:14.746Z,102474.52
2019-04-20T08:43:00.475Z,102474.41
2019-04-20T08:45:24.787Z,102476.75
2019-04-20T08:50:22.313Z,102471.02
2019-04-20T08:53:11.179Z,102457.55
2019-04-20T08:55:19.732Z,102462.94
2019-04-20T08:57:35.465Z,102459.27
2019-04-20T09:00:09.097Z,102456.98
2019-04-20T09:02:41.294Z,102454.02
2019-04-20T09:05:28.024Z,102451.97
2019-04-20T09:07:53.562Z,102449.77
2019-04-20T09:10:34.314Z,102442.80
2019-04-20T09:13:01.479Z,102441.03
2019-04-20T09:15:16.836Z,102441.27
2019-04-20T09:17:57.111Z,102432.71
2019-04-20T09:20:31.843Z,102427.41
2019-04-20T09:23:21.548Z,102429.71
2019-04-20T09:28:32.324Z,102425.73
2019-04-20T09:31:11.856Z,102418.12
2019-04-20T09:34:11.460Z,102413.54
2019-04-20T09:36:46.205Z,102410.91
2019-04-20T09:39:33.822Z,102405.33
2019-04-20T09:42:21.263Z,102401.70
2019-04-20T09:44:54.444Z,102397.70
2019-04-20T09:47:27.418Z,102396.66
2019-04-20T09:50:03.520Z,102396.77
2019-04-20T09:52:40.661Z,102396.45
2019-04-20T09:55:10.923Z,102377.11
2019-04-20T09:57:43.865Z,102380.45
2019-04-20T10:00:15.470Z,102383.03
2019-04-20T10:02:34.461Z,102382.13
2019-04-20T10:05:02.090Z,102378.63
2019-04-20T10:07:35.370Z,102373.41
2019-04-20T10:10:15.585Z,102376.38
2019-04-20T10:12:34.084Z,102369.73
2019-04-20T10:15:12.204Z,102364.88
2019-04-20T10:17:35.790Z,102357.53
2019-04-20T10:20:12.350Z,102356.23
2019-04-20T10:22:38.563Z,102353.34
2019-04-20T10:25:08.656Z,102354.58
2019-04-20T10:27:40.614Z,102350.98
2019-04-20T10:30:10.412Z,102345.58
2019-04-20T10:32:45.158Z,102344.77
2019-04-20T10:35:15.014Z,102347.05
2019-04-20T10:37:49.417Z,102343.05
2019-04-20T10:40:34.433Z,102342.75
2019-04-20T10:42:50.780Z,102336.56
2019-04-20T10:45:21.290Z,102337.48
2019-04-20T10:47:51.099Z,102332.93
2019-04-20T10:50:22.999Z,102325.64
2019-04-20T10:52:53.990Z,102318.53
2019-04-20T10:55:25.056Z,102328.09
2019-04-20T10:57:55.557Z,102321.06
2019-04-20T11:00:41.791Z,102319.84
2019-04-20T11:03:15.953Z,102321.34
2019-04-20T11:05:46.759Z,102313.53
2019-04-20T11:08:16.858Z,102314.36
2019-04-20T11:11:00.281Z,102313.75
2019-04-20T11:13:23.606Z,102310.28
2019-04-20T11:15:53.053Z,102307.86
2019-04-20T11:18:22.642Z,102307.86
2019-04-20T11:20:53.260Z,102304.26
2019-04-20T11:23:22.807Z,102310.15
2019-04-20T11:25:53.111Z,102302.81
2019-04-20T11:28:22.535Z,102297.67
2019-04-20T11:30:52.205Z,102298.76
2019-04-20T11:33:22.397Z,102291.70
2019-04-20T11:35:51.845Z,102296.00
2019-04-20T11:38:21.982Z,102289.50
2019-04-20T11:41:04.135Z,102283.26
2019-04-20T11:43:23.964Z,102282.30
2019-04-20T11:45:54.515Z,102273.03
2019-04-20T11:48:25.373Z,102271.06
2019-04-20T11:50:55.830Z,102277.64
2019-04-20T11:53:26.882Z,102270.92
2019-04-20T11:55:56.605Z,102266.92
2019-04-20T11:58:26.239Z,102266.77
2019-04-20T12:01:03.256Z,102267.66
2019-04-20T12:03:35.370Z,102260.63
2019-04-20T12:06:01.642Z,102261.30
2019-04-20T12:08:31.173Z,102254.53
2019-04-20T12:11:12.054Z,102249.96
2019-04-20T12:13:32.233Z,102244.05
2019-04-20T12:16:01.715Z,102247.00
2019-04-20T12:18:31.710Z,102238.18
2019-04-20T12:21:02.913Z,102234.47
2019-04-20T12:23:33.927Z,102238.94
2019-04-20T12:26:04.678Z,102233.19
2019-04-20T12:28:35.489Z,102226.25
2019-04-20T12:31:11.852Z,102234.55
2019-04-20T12:33:36.729Z,102213.69
2019-04-20T12:36:08.539Z,102219.44
2019-04-20T12:38:39.136Z,102213.84
2019-04-20T12:41:10.994Z,102214.79
2019-04-20T12:43:39.737Z,102214.72
2019-04-20T12:46:09.927Z,102205.28
2019-04-20T12:48:39.666Z,102199.98
2019-04-20T12:51:09.456Z,102205.21
2019-04-20T12:53:38.855Z,102210.20
2019-04-20T12:56:08.646Z,102196.05
2019-04-20T12:58:41.648Z,102196.39
2019-04-20T13:01:10.118Z,102194.42
2019-04-20T13:03:39.632Z,102196.39
2019-04-20T13:06:09.931Z,102202.83
2019-04-20T13:08:45.105Z,102194.23
2019-04-20T13:11:20.404Z,102187.27
2019-04-20T13:14:35.616Z,102189.77
2019-04-20T13:19:33.534Z,102185.61
2019-04-20T13:22:03.281Z,102172.28
2019-04-20T13:24:34.662Z,102172.05
2019-04-20T13:27:04.843Z,102165.93
2019-04-20T13:29:35.120Z,102160.02
2019-04-20T13:32:05.484Z,102162.70
2019-04-20T13:34:36.097Z,102161.03
2019-04-20T13:37:06.376Z,102158.30
2019-04-20T13:39:36.000Z,102158.16
2019-04-20T13:42:12.149Z,102150.81
2019-04-20T13:44:37.015Z,102144.09
2019-04-20T13:47:12.757Z,102150.38
2019-04-20T13:49:43.031Z,102137.88
2019-04-20T13:52:12.933Z,102139.84
2019-04-20T13:54:42.642Z,102141.24
2019-04-20T13:57:17.776Z,102132.36
2019-04-20T13:59:53.735Z,102132.52
2019-04-20T14:02:51.117Z,102127.53
2019-04-20T14:05:31.344Z,102121.28
2019-04-20T14:08:05.254Z,102110.47
2019-04-20T14:10:35.425Z,102117.64
2019-04-20T14:13:12.095Z,102120.25
2019-04-20T14:15:37.406Z,102122.68
2019-04-20T14:18:07.284Z,102124.20
2019-04-20T14:20:38.073Z,102118.59
2019-04-20T14:23:07.563Z,102107.05
2019-04-20T14:25:38.663Z,102105.09
2019-04-20T14:28:09.091Z,102097.98
2019-04-20T14:30:38.560Z,102090.50
2019-04-20T14:33:08.540Z,102087.66
2019-04-20T14:35:38.806Z,102085.16
2019-04-20T14:38:08.365Z,102088.30
2019-04-20T14:40:37.813Z,102080.05
2019-04-20T14:43:07.260Z,102077.25
2019-04-20T14:45:36.866Z,102081.48
2019-04-20T14:48:07.834Z,102070.70
2019-04-20T14:50:38.064Z,102070.31
2019-04-20T14:53:07.487Z,102062.60
2019-04-20T14:55:37.611Z,102064.19
2019-04-20T14:58:13.304Z,102067.64
2019-04-20T15:00:58.537Z,102066.91
2019-04-20T15:03:30.711Z,102062.00
2019-04-20T15:06:03.110Z,102054.78
2019-04-20T15:08:32.571Z,102045.86
2019-04-20T15:11:02.954Z,102052.67
2019-04-20T15:13:32.976Z,102053.39
2019-04-20T15:16:02.521Z,102045.67
2019-04-20T15:18:37.667Z,102043.36
2019-04-20T15:21:09.346Z,102040.78
2019-04-20T15:23:39.553Z,102038.77
2019-04-20T15:26:09.082Z,102032.98
2019-04-20T15:28:38.670Z,102034.16
2019-04-20T15:31:08.165Z,102033.09
2019-04-20T15:33:39.102Z,102035.50
2019-04-20T15:36:08.614Z,102027.96
2019-04-20T15:38:38.788Z,102034.08
2019-04-20T15:41:11.502Z,102027.51
2019-04-20T15:43:39.590Z,102022.72
2019-04-20T15:46:09.622Z,102023.64
2019-04-20T15:48:42.117Z,102023.03
2019-04-20T15:51:12.072Z,102023.02
2019-04-20T15:53:41.836Z,102016.45
2019-04-20T15:56:11.953Z,102010.38
2019-04-20T15:58:41.447Z,102011.34
2019-04-20T16:01:12.171Z,102009.14
2019-04-20T16:03:53.159Z,102010.73
2019-04-20T16:06:23.118Z,101997.16
2019-04-20T16:08:54.537Z,102005.98
2019-04-20T16:11:24.343Z,101997.69
2019-04-20T16:13:55.824Z,102000.00
2019-04-20T16:16:25.890Z,102000.73
2019-04-20T16:18:56.814Z,101991.66
2019-04-20T16:21:29.822Z,101985.07
2019-04-20T16:24:16.921Z,101981.23
2019-04-20T16:26:51.570Z,101979.94
2019-04-20T16:29:21.808Z,101977.62
2019-04-20T16:31:52.158Z,101985.16
2019-04-20T16:34:25.406Z,101982.15
2019-04-20T16:36:56.075Z,101975.69
2019-04-20T16:39:24.670Z,101974.87
2019-04-20T16:41:56.096Z,101972.11
2019-04-20T16:44:27.317Z,101970.09
2019-04-20T16:46:58.263Z,101968.03
2019-04-20T16:49:28.931Z,101971.82
2019-04-20T16:52:00.870Z,101965.67
2019-04-20T16:54:30.292Z,101964.76
2019-04-20T16:57:00.525Z,101961.14
2019-04-20T16:59:33.602Z,101956.43
2019-04-20T17:02:02.518Z,101959.52
2019-04-20T17:04:33.619Z,101953.17
2019-04-20T17:07:29.002Z,101955.91
2019-04-20T17:09:58.478Z,101954.48
2019-04-20T17:12:28.165Z,101962.81
2019-04-20T17:14:58.157Z,101961.16
2019-04-20T17:17:27.705Z,101953.09
2019-04-20T17:19:57.656Z,101958.66
2019-04-20T17:22:27.616Z,101959.56
2019-04-20T17:24:58.292Z,101949.38
2019-04-20T17:27:46.920Z,101955.52
2019-04-20T17:30:35.792Z,101951.19
2019-04-20T17:33:08.273Z,101954.16
2019-04-20T17:35:52.585Z,101950.40
2019-04-20T17:38:16.401Z,101942.25
2019-04-20T17:41:02.974Z,101943.88
2019-04-20T17:43:24.901Z,101944.78
2019-04-20T17:45:59.197Z,101943.47
2019-04-20T17:48:33.241Z,101940.50
2019-04-20T17:51:12.281Z,101940.14
2019-04-20T17:54:05.329Z,101940.00
2019-04-20T17:56:40.580Z,101934.91
2019-04-20T17:59:10.473Z,101938.41
2019-04-20T18:02:17.502Z,101939.48
2019-04-20T18:05:12.948Z,101929.28
2019-04-20T18:07:40.731Z,101932.39
2019-04-20T18:10:12.705Z,101933.50
2019-04-20T18:12:34.499Z,101931.17
2019-04-20T18:15:14.871Z,101940.08
2019-04-20T18:18:00.307Z,101936.83
2019-04-20T18:20:25.224Z,101941.98
2019-04-20T18:22:56.866Z,101935.34
2019-04-20T18:25:57.440Z,101927.75
2019-04-20T18:28:13.278Z,101928.80
2019-04-20T18:30:56.698Z,101929.48
2019-04-20T18:33:28.806Z,101926.32
2019-04-20T18:35:56.211Z,101931.76
2019-04-20T18:38:26.142Z,101928.93
2019-04-20T18:41:02.733Z,101932.89
2019-04-20T18:44:30.613Z,101931.97
2019-04-20T18:47:18.452Z,101928.42
2019-04-20T18:49:38.749Z,101927.55
2019-04-20T18:51:58.196Z,101930.22
2019-04-20T18:54:32.273Z,101932.14
2019-04-20T18:57:01.632Z,101925.78
2019-04-20T18:59:40.053Z,101924.59
2019-04-20T19:02:06.793Z,101925.62
2019-04-20T19:04:33.637Z,101921.63
2019-04-20T19:07:03.766Z,101924.27
2019-04-20T19:09:34.691Z,101922.61
2019-04-20T19:12:09.295Z,101923.17
2019-04-20T19:14:49.214Z,101920.39
2019-04-20T19:17:45.136Z,101924.64
2019-04-20T19:20:11.899Z,101918.63
2019-04-20T19:22:41.988Z,101912.30
2019-04-20T19:25:18.375Z,101913.03
2019-04-20T19:27:50.930Z,101907.33
2019-04-20T19:30:27.628Z,101909.81
2019-04-20T19:33:09.112Z,101907.78
2019-04-20T19:35:37.614Z,101908.43
2019-04-20T19:38:05.462Z,101909.56
2019-04-20T19:40:33.733Z,101904.35
2019-04-20T19:43:08.476Z,101899.28
2019-04-20T19:45:46.707Z,101899.05
2019-04-20T19:48:12.290Z,101898.82
2019-04-20T19:50:54.630Z,101898.43
2019-04-20T19:53:22.995Z,101892.12
2019-04-20T19:55:45.181Z,101885.32
2019-04-20T19:58:17.565Z,101893.19
2019-04-20T20:00:55.543Z,101889.92
2019-04-20T20:03:23.871Z,101895.73
2019-04-20T20:05:55.770Z,101895.19
2019-04-20T20:08:29.577Z,101885.70
2019-04-20T20:10:59.238Z,101888.67
2019-04-20T20:13:37.038Z,101889.96
2019-04-20T20:16:08.710Z,101897.13
2019-04-20T20:18:46.651Z,101887.66
2019-04-20T20:21:15.185Z,101885.69
2019-04-20T20:23:32.225Z,101882.09
2019-04-20T20:26:05.095Z,101878.82
2019-04-20T20:28:43.708Z,101886.47
2019-04-20T20:31:17.035Z,101876.50
2019-04-20T20:33:49.400Z,101873.74
2019-04-20T20:36:12.629Z,101876.33
2019-04-20T20:38:44.844Z,101876.56
2019-04-20T20:41:19.455Z,101878.08
2019-04-20T20:43:48.170Z,101877.57
2019-04-20T20:46:19.432Z,101876.06
2019-04-20T20:49:04.802Z,101875.86
2019-04-20T20:51:39.161Z,101871.98
2019-04-20T20:53:57.931Z,101870.64
2019-04-20T20:56:24.078Z,101868.13
2019-04-20T20:58:59.266Z,101875.16
2019-04-20T21:01:25.370Z,101871.14
2019-04-20T21:03:53.073Z,101866.27
2019-04-20T21:06:22.752Z,101863.78
2019-04-20T21:08:56.064Z,101863.48
2019-04-20T21:11:28.931Z,101862.00
2019-04-20T21:13:56.304Z,101856.34
2019-04-20T21:16:31.519Z,101855.19
2019-04-20T21:19:14.749Z,101858.72
2019-04-20T21:21:41.300Z,101856.41
2019-04-20T21:24:10.813Z,101851.89
2019-04-20T21:26:41.958Z,101857.77
2019-04-20T21:29:08.147Z,101861.50
2019-04-20T21:31:38.555Z,101854.47
2019-04-20T21:34:13.124Z,101855.31
2019-04-20T21:36:39.196Z,101857.66
2019-04-20T21:39:16.303Z,101856.50
2019-04-20T21:41:52.452Z,101856.50
2019-04-20T21:44:21.795Z,101856.37
2019-04-20T21:46:51.230Z,101853.02
2019-04-20T21:49:33.474Z,101851.34
2019-04-20T21:51:57.240Z,101851.02
2019-04-20T21:54:20.486Z,101842.17
2019-04-20T21:56:56.363Z,101839.66
2019-04-20T21:59:30.609Z,101842.67
2019-04-20T22:01:58.425Z,101837.17
2019-04-20T22:04:25.030Z,101836.84
2019-04-20T22:06:56.102Z,101833.99
2019-04-20T22:09:34.449Z,101826.29
2019-04-20T22:11:58.120Z,101825.79
2019-04-20T22:14:31.631Z,101833.33
2019-04-20T22:17:00.797Z,101833.48
2019-04-20T22:19:40.116Z,101828.83
2019-04-20T22:22:12.909Z,101826.66
2019-04-20T22:24:46.444Z,101831.67
2019-04-20T22:27:12.895Z,101828.16
2019-04-20T22:29:36.303Z,101818.78
2019-04-20T22:32:11.566Z,101826.14
2019-04-20T22:34:37.698Z,101818.45
2019-04-20T22:37:13.593Z,101816.61
2019-04-20T22:39:46.660Z,101813.79
2019-04-20T22:42:14.319Z,101816.63
2019-04-20T22:44:47.998Z,101817.80
2019-04-20T22:47:22.542Z,101810.77
2019-04-20T22:49:59.586Z,101806.25
2019-04-20T22:52:39.655Z,101810.09
2019-04-20T22:55:12.676Z,101810.27
2019-04-20T22:57:38.742Z,101809.09
2019-04-20T23:00:02.709Z,101804.27
2019-04-20T23:02:26.244Z,101797.73
2019-04-20T23:04:54.999Z,101788.69
2019-04-20T23:07:24.561Z,101794.41
2019-04-20T23:09:56.662Z,101794.23
2019-04-20T23:12:26.937Z,101788.71
2019-04-20T23:14:56.515Z,101788.53
2019-04-20T23:17:33.563Z,101791.88
2019-04-20T23:20:00.010Z,101786.36
2019-04-20T23:22:36.842Z,101777.34
2019-04-20T23:24:59.533Z,101775.00
2019-04-20T23:27:31.527Z,101783.36
2019-04-20T23:30:03.635Z,101780.87
2019-04-20T23:32:32.026Z,101777.68
2019-04-20T23:35:05.913Z,101775.66
2019-04-20T23:37:36.803Z,101771.33
2019-04-20T23:40:08.172Z,101773.16
2019-04-20T23:42:45.480Z,101776.16
2019-04-20T23:45:31.486Z,101765.30
2019-04-20T23:48:04.414Z,101765.25
2019-04-20T23:50:48.962Z,101764.59
2019-04-20T23:53:21.259Z,101764.91
2019-04-20T23:55:35.950Z,101765.23
2019-04-20T23:58:07.452Z,101764.22
